Time;durP1;ratioP1;P1;durP2;ratioP2;P2;SDS_P1;SDS_P2;PMS_P1;PMS_P2;Temp;Humidity;BMP_temperature;BMP_pressure;BME280_temperature;BME280_humidity;BME280_pressure;Samples;Min_cycle;Max_cycle;Signal;HPM_P1;HPM_P2
2022/05/13 00:00:14;;;;;;;;;;;;;;;29.60;32.28;99187.28;4482817;32;34190;-82
2022/05/13 00:02:43;;;;;;;;;;;;;;;29.50;32.36;99195.00;4470372;32;35040;-83
2022/05/13 00:05:10;;;;;;;;;;;;;;;29.36;32.74;99195.06;4471159;32;33571;-84
2022/05/13 00:07:37;;;;;;;;;;;;;;;29.37;32.69;99187.91;4460556;32;33875;-85
2022/05/13 00:10:05;;;;;;;;;;;;;;;29.44;32.81;99190.06;4482177;32;33990;-83
2022/05/13 00:12:34;;;;;;;;;;;;;;;29.47;32.64;99192.56;4481082;32;34264;-84
2022/05/13 00:15:02;;;;;;;;;;;;;;;29.69;31.79;99194.69;4481943;32;34118;-81
2022/05/13 00:17:30;;;;;;;;;;;;;;;29.41;32.28;99200.94;4479188;32;33796;-84
2022/05/13 00:19:57;;;;;;;;;;;;;;;29.61;32.44;99202.34;4473835;32;34031;-84
2022/05/13 00:22:25;;;;;;;;;;;;;;;29.37;32.64;99207.44;4459820;32;33630;-81
2022/05/13 00:24:53;;;;;;;;;;;;;;;29.38;32.60;99211.81;4468618;32;33942;-83
2022/05/13 00:27:21;;;;;;;;;;;;;;;29.47;32.42;99216.59;4467632;32;33898;-83
2022/05/13 00:29:48;;;;;;;;;;;;;;;29.06;32.69;99224.56;4468013;32;32915;-82
2022/05/13 00:32:16;;;;;;;;;;;;;;;29.19;32.86;99203.28;4461612;32;34133;-81
2022/05/13 00:34:43;;;;;;;;;;;;;;;28.84;33.74;99207.16;4467507;32;34490;-85
2022/05/13 00:37:11;;;;;;;;;;;;;;;29.12;33.33;99207.28;4463023;32;34254;-84
2022/05/13 00:39:38;;;;;;;;;;;;;;;28.80;34.04;99204.78;4475244;32;33316;-83
2022/05/13 00:42:09;;;;;;;;;;;;;;;29.11;33.32;99211.75;4477099;32;34593;-85
2022/05/13 00:44:36;;;;;;;;;;;;;;;29.30;33.24;99209.66;4453283;32;33969;-85
2022/05/13 00:47:04;;;;;;;;;;;;;;;28.88;33.91;99215.84;4454139;32;33614;-84
2022/05/13 00:49:34;;;;;;;;;;;;;;;28.64;33.52;99214.66;4455790;32;33313;-86
2022/05/13 00:52:01;;;;;;;;;;;;;;;28.76;33.69;99212.12;4456713;32;34047;-85
2022/05/13 00:54:29;;;;;;;;;;;;;;;28.81;33.69;99211.81;4482210;32;34477;-84
2022/05/13 00:56:56;;;;;;;;;;;;;;;28.43;34.57;99211.50;4482453;32;33820;-86
2022/05/13 00:59:25;;;;;;;;;;;;;;;28.82;32.98;99214.38;4460286;32;33306;-86
2022/05/13 01:01:54;;;;;;;;;;;;;;;28.78;33.33;99206.66;4456113;32;34902;-85
2022/05/13 01:04:21;;;;;;;;;;;;;;;28.88;33.74;99207.81;4461627;32;33679;-85
2022/05/13 01:06:52;;;;;;;;;;;;;;;28.73;34.02;99206.97;4457974;32;34824;-84
2022/05/13 01:09:20;;;;;;;;;;;;;;;28.93;33.85;99205.72;4462627;32;34013;-84
2022/05/13 01:11:47;;;;;;;;;;;;;;;29.14;30.14;99197.38;4467487;32;34154;-86
2022/05/13 01:14:17;;;;;;;;;;;;;;;28.57;33.47;99199.03;4481697;32;34524;-83
2022/05/13 01:19:30;;;;;;;;;;;;;;;28.56;30.79;99191.13;4474109;32;33420;-83
2022/05/13 01:22:05;;;;;;;;;;;;;;;28.20;31.66;99183.50;4482084;32;35480;-84
2022/05/13 01:24:34;;;;;;;;;;;;;;;28.26;31.17;99180.44;4465307;32;34385;-86
2022/05/13 01:27:02;;;;;;;;;;;;;;;28.20;31.75;99189.69;4468325;32;34232;-86
2022/05/13 01:29:29;;;;;;;;;;;;;;;28.64;31.61;99186.19;4469212;32;33085;-83
2022/05/13 01:31:56;;;;;;;;;;;;;;;28.78;32.16;99188.00;4452532;32;34062;-83
2022/05/13 01:34:23;;;;;;;;;;;;;;;28.21;31.43;99190.53;4466922;32;34358;-83
2022/05/13 01:36:51;;;;;;;;;;;;;;;28.64;30.85;99183.53;4455125;32;35026;-85
2022/05/13 01:39:18;;;;;;;;;;;;;;;28.92;32.04;99195.16;4460260;32;33446;-83
2022/05/13 01:41:46;;;;;;;;;;;;;;;28.81;31.25;99195.81;4468489;32;35084;-86
2022/05/13 01:44:13;;;;;;;;;;;;;;;28.49;31.90;99189.75;4472134;32;34731;-86
2022/05/13 01:46:40;;;;;;;;;;;;;;;29.00;31.61;99193.75;4459885;32;34331;-87
2022/05/13 01:49:08;;;;;;;;;;;;;;;28.66;32.68;99191.44;4472327;32;31936;-85
2022/05/13 01:51:35;;;;;;;;;;;;;;;27.88;32.21;99189.78;4468306;32;33882;-86
2022/05/13 01:54:03;;;;;;;;;;;;;;;28.53;32.39;99178.84;4454165;32;34832;-84
2022/05/13 01:56:30;;;;;;;;;;;;;;;28.42;33.92;99178.63;4456146;32;33825;-84
2022/05/13 01:58:57;;;;;;;;;;;;;;;28.13;32.64;99178.53;4475044;32;33184;-84
2022/05/13 02:01:24;;;;;;;;;;;;;;;28.43;32.77;99193.69;4469718;32;33702;-86
2022/05/13 02:03:52;;;;;;;;;;;;;;;28.10;32.15;99180.50;4483992;32;34219;-85
2022/05/13 02:06:23;;;;;;;;;;;;;;;27.96;32.29;99185.78;4477065;32;34891;-84
2022/05/13 02:08:51;;;;;;;;;;;;;;;28.24;31.93;99185.03;4477023;32;33384;-84
2022/05/13 02:11:19;;;;;;;;;;;;;;;28.03;32.05;99180.00;4468454;32;35008;-84
2022/05/13 02:13:46;;;;;;;;;;;;;;;28.06;31.86;99187.81;4454234;32;34993;-83
2022/05/13 02:16:14;;;;;;;;;;;;;;;28.06;32.13;99174.50;4469602;32;33701;-86
2022/05/13 02:18:41;;;;;;;;;;;;;;;27.68;32.61;99182.03;4477434;32;33044;-85
2022/05/13 02:21:09;;;;;;;;;;;;;;;26.52;34.60;99189.25;4483813;32;35111;-84
2022/05/13 02:23:37;;;;;;;;;;;;;;;26.09;35.32;99190.53;4483717;32;34242;-85
2022/05/13 02:26:06;;;;;;;;;;;;;;;25.34;37.07;99192.37;4472651;32;33855;-86
2022/05/13 02:28:34;;;;;;;;;;;;;;;25.66;36.57;99182.00;4470954;32;34137;-84
2022/05/13 02:31:02;;;;;;;;;;;;;;;26.38;35.19;99181.09;4474998;32;34654;-83
2022/05/13 02:33:31;;;;;;;;;;;;;;;26.17;35.47;99170.59;4469603;32;34815;-84
2022/05/13 02:36:02;;;;;;;;;;;;;;;27.01;33.96;99186.63;4473259;32;34145;-85
2022/05/13 02:38:29;;;;;;;;;;;;;;;26.50;35.21;99180.47;4460762;32;32783;-84
2022/05/13 02:41:12;;;;;;;;;;;;;;;26.26;35.79;99187.03;4457000;32;34150;-84
2022/05/13 02:43:44;;;;;;;;;;;;;;;26.71;35.31;99186.47;4483728;32;34855;-83
2022/05/13 02:46:13;;;;;;;;;;;;;;;26.91;34.63;99182.75;4469994;32;34244;-85
2022/05/13 02:48:40;;;;;;;;;;;;;;;27.14;34.43;99192.16;4463111;32;34109;-83
2022/05/13 02:51:08;;;;;;;;;;;;;;;26.82;35.22;99188.53;4477738;32;34168;-85
2022/05/13 02:53:35;;;;;;;;;;;;;;;27.45;34.79;99191.31;4469564;32;34095;-86
2022/05/13 02:56:07;;;;;;;;;;;;;;;27.77;33.99;99185.97;4454242;32;34016;-85
2022/05/13 02:58:35;;;;;;;;;;;;;;;26.95;35.50;99200.25;4471940;32;34193;-85
2022/05/13 03:01:03;;;;;;;;;;;;;;;27.51;34.24;99208.78;4474128;32;33873;-83
2022/05/13 03:03:33;;;;;;;;;;;;;;;27.70;34.38;99205.94;4454004;32;33759;-85
2022/05/13 03:06:00;;;;;;;;;;;;;;;27.00;35.39;99215.97;4457806;32;33358;-85
2022/05/13 03:08:28;;;;;;;;;;;;;;;26.65;36.25;99213.38;4474825;32;32648;-83
2022/05/13 03:10:55;;;;;;;;;;;;;;;26.31;36.44;99206.25;4480225;32;34590;-84
2022/05/13 03:13:22;;;;;;;;;;;;;;;25.48;38.24;99223.56;4468140;32;33969;-86
2022/05/13 03:15:50;;;;;;;;;;;;;;;26.59;35.90;99222.53;4467851;32;33943;-85
2022/05/13 03:18:17;;;;;;;;;;;;;;;26.19;36.49;99219.22;4472798;32;34101;-85
2022/05/13 03:20:44;;;;;;;;;;;;;;;25.97;37.10;99215.91;4465553;32;34383;-85
2022/05/13 03:23:11;;;;;;;;;;;;;;;25.84;37.41;99231.63;4483052;32;34409;-85
2022/05/13 03:25:39;;;;;;;;;;;;;;;26.12;37.35;99227.59;4478610;31;34429;-83
2022/05/13 03:28:06;;;;;;;;;;;;;;;25.93;37.52;99227.62;4470187;32;34101;-85
2022/05/13 03:30:33;;;;;;;;;;;;;;;25.52;38.51;99230.44;4470884;32;34333;-83
2022/05/13 03:33:01;;;;;;;;;;;;;;;25.99;37.70;99232.66;4481248;32;35147;-84
2022/05/13 03:35:28;;;;;;;;;;;;;;;26.17;37.21;99229.06;4465604;32;34192;-84
2022/05/13 03:37:55;;;;;;;;;;;;;;;25.65;38.05;99230.75;4471444;32;33476;-86
2022/05/13 03:40:23;;;;;;;;;;;;;;;26.33;36.28;99237.16;4468695;32;33058;-86
2022/05/13 03:42:50;;;;;;;;;;;;;;;25.82;37.30;99225.50;4454689;32;33909;-84
2022/05/13 03:45:18;;;;;;;;;;;;;;;25.82;37.60;99241.44;4467921;32;33715;-86
2022/05/13 03:47:45;;;;;;;;;;;;;;;25.45;38.29;99231.66;4470156;32;33161;-87
2022/05/13 03:50:13;;;;;;;;;;;;;;;24.70;39.60;99235.94;4454029;32;33930;-85
2022/05/13 03:52:42;;;;;;;;;;;;;;;25.31;38.57;99239.44;4459288;32;34470;-82
2022/05/13 03:55:09;;;;;;;;;;;;;;;26.18;37.09;99236.13;4483519;32;34194;-84
2022/05/13 03:57:37;;;;;;;;;;;;;;;24.56;39.75;99246.28;4463351;32;33342;-83
2022/05/13 04:00:04;;;;;;;;;;;;;;;24.97;39.75;99248.91;4464577;32;34846;-84
2022/05/13 04:02:32;;;;;;;;;;;;;;;24.80;40.25;99254.09;4472154;32;33926;-84
2022/05/13 04:10:31;;;;;;;;;;;;;;;23.43;44.07;99258.75;4476810;32;34734;-87
2022/05/13 04:18:31;;;;;;;;;;;;;;;24.34;42.78;99261.34;4469499;32;33246;-82
2022/05/13 04:20:58;;;;;;;;;;;;;;;23.62;44.50;99262.41;4461958;32;34357;-85
2022/05/13 04:23:25;;;;;;;;;;;;;;;23.54;45.28;99272.44;4468517;31;34899;-86
2022/05/13 04:25:52;;;;;;;;;;;;;;;23.29;46.28;99268.06;4470889;32;33820;-84
2022/05/13 04:28:20;;;;;;;;;;;;;;;23.46;46.65;99262.16;4440510;32;34012;-85
2022/05/13 04:30:47;;;;;;;;;;;;;;;22.64;49.32;99263.38;4469077;32;33889;-83
2022/05/13 04:33:14;;;;;;;;;;;;;;;22.32;50.62;99281.19;4477096;32;35323;-86
2022/05/13 04:35:42;;;;;;;;;;;;;;;21.89;52.14;99288.72;4461781;32;34803;-85
2022/05/13 04:38:09;;;;;;;;;;;;;;;23.40;48.21;99278.25;4467331;32;33401;-84
2022/05/13 04:40:37;;;;;;;;;;;;;;;23.06;49.07;99278.66;4463324;32;33652;-84
2022/05/13 04:43:06;;;;;;;;;;;;;;;23.71;47.22;99274.47;4460911;32;34144;-84
2022/05/13 04:45:33;;;;;;;;;;;;;;;22.41;51.00;99284.44;4462101;32;33427;-83
2022/05/13 04:48:18;;;;;;;;;;;;;;;22.87;50.15;99277.56;4464981;32;31909;-85
2022/05/13 04:50:49;;;;;;;;;;;;;;;23.73;47.81;99280.56;4459910;32;34906;-84
2022/05/13 04:53:18;;;;;;;;;;;;;;;23.45;48.11;99275.44;4467551;32;33994;-83
2022/05/13 04:55:45;;;;;;;;;;;;;;;23.10;49.18;99277.63;4472765;32;34142;-83
2022/05/13 04:58:12;;;;;;;;;;;;;;;23.58;47.59;99275.84;4472916;31;34140;-85
2022/05/13 05:00:43;;;;;;;;;;;;;;;22.54;50.68;99283.09;4473284;32;35120;-83
2022/05/13 05:03:10;;;;;;;;;;;;;;;24.27;46.01;99280.12;4466003;32;34610;-84
2022/05/13 05:05:37;;;;;;;;;;;;;;;23.75;47.62;99289.28;4478447;32;34024;-84
2022/05/13 05:08:05;;;;;;;;;;;;;;;24.16;46.42;99302.69;4456687;32;33478;-82
2022/05/13 05:10:33;;;;;;;;;;;;;;;23.49;48.23;99303.53;4483131;31;34198;-82
2022/05/13 05:13:00;;;;;;;;;;;;;;;23.68;48.11;99314.31;4479624;32;34123;-85
2022/05/13 05:15:28;;;;;;;;;;;;;;;23.63;48.93;99316.22;4455137;32;34884;-84
2022/05/13 05:17:55;;;;;;;;;;;;;;;23.71;48.66;99320.31;4454950;32;34310;-83
2022/05/13 05:20:22;;;;;;;;;;;;;;;23.88;47.99;99324.13;4473318;32;34901;-82
2022/05/13 05:22:50;;;;;;;;;;;;;;;23.44;49.60;99331.91;4482873;32;34469;-85
2022/05/13 05:25:18;;;;;;;;;;;;;;;23.82;48.53;99330.50;4480314;32;34949;-83
2022/05/13 05:27:46;;;;;;;;;;;;;;;23.23;50.25;99328.28;4480150;32;34459;-83
2022/05/13 05:30:14;;;;;;;;;;;;;;;23.43;49.41;99336.34;4473099;32;33471;-84
2022/05/13 05:32:42;;;;;;;;;;;;;;;23.60;49.04;99342.78;4455045;32;35137;-82
2022/05/13 05:35:11;;;;;;;;;;;;;;;23.22;50.25;99327.44;4478617;32;34807;-85
2022/05/13 05:37:38;;;;;;;;;;;;;;;24.38;47.60;99340.63;4459816;32;33390;-85
2022/05/13 05:40:06;;;;;;;;;;;;;;;24.34;47.37;99340.81;4471166;32;34601;-83
2022/05/13 05:42:33;;;;;;;;;;;;;;;23.96;48.62;99330.81;4474557;32;34113;-85
2022/05/13 05:45:01;;;;;;;;;;;;;;;24.98;45.60;99324.88;4483337;32;34248;-86
2022/05/13 05:47:28;;;;;;;;;;;;;;;24.62;47.12;99336.13;4469914;32;33332;-86
2022/05/13 05:49:56;;;;;;;;;;;;;;;24.12;47.71;99323.13;4469898;32;34777;-85
2022/05/13 05:52:24;;;;;;;;;;;;;;;25.12;45.16;99321.66;4469985;32;35341;-86
2022/05/13 05:57:37;;;;;;;;;;;;;;;24.86;45.74;99322.78;4484275;32;34030;-86
2022/05/13 06:00:06;;;;;;;;;;;;;;;25.23;44.85;99322.06;4470049;32;34357;-85
2022/05/13 06:02:34;;;;;;;;;;;;;;;25.54;44.42;99324.16;4484235;31;34334;-85
2022/05/13 06:05:01;;;;;;;;;;;;;;;26.53;42.00;99326.56;4484305;31;34270;-85
2022/05/13 06:07:28;;;;;;;;;;;;;;;26.87;40.86;99324.84;4484193;31;33230;-85
2022/05/13 06:09:56;;;;;;;;;;;;;;;26.76;41.14;99333.38;4484352;32;34676;-84
2022/05/13 06:12:23;;;;;;;;;;;;;;;26.77;41.34;99336.88;4470221;32;34488;-85
2022/05/13 06:14:50;;;;;;;;;;;;;;;27.02;40.88;99333.84;4483931;31;34145;-85
2022/05/13 06:17:18;;;;;;;;;;;;;;;27.11;40.43;99334.22;4484317;32;33471;-85
2022/05/13 06:19:45;;;;;;;;;;;;;;;26.53;41.41;99334.53;4483736;32;34315;-85
2022/05/13 06:22:12;;;;;;;;;;;;;;;26.68;41.13;99336.41;4483909;32;34378;-86
2022/05/13 06:24:39;;;;;;;;;;;;;;;26.13;42.66;99336.44;4484152;31;33977;-86
2022/05/13 06:27:07;;;;;;;;;;;;;;;26.35;41.55;99338.06;4484074;32;33386;-85
2022/05/13 06:29:36;;;;;;;;;;;;;;;26.71;41.16;99342.50;4483635;32;34254;-86
2022/05/13 06:32:04;;;;;;;;;;;;;;;27.33;39.48;99338.44;4483918;32;35376;-86
2022/05/13 06:34:32;;;;;;;;;;;;;;;27.84;38.61;99334.78;4469686;32;34334;-85
2022/05/13 06:36:59;;;;;;;;;;;;;;;27.81;37.93;99337.59;4469733;32;32885;-85
2022/05/13 06:39:27;;;;;;;;;;;;;;;27.90;37.49;99333.56;4456661;32;33418;-86
2022/05/13 06:41:54;;;;;;;;;;;;;;;27.53;38.51;99330.22;4483994;32;34902;-86
2022/05/13 06:44:21;;;;;;;;;;;;;;;27.69;38.79;99332.91;4483651;32;33830;-85
2022/05/13 06:46:49;;;;;;;;;;;;;;;27.68;38.92;99327.66;4483805;31;33333;-85
2022/05/13 06:49:16;;;;;;;;;;;;;;;27.94;39.10;99340.44;4483740;32;34326;-85
2022/05/13 06:51:43;;;;;;;;;;;;;;;27.51;37.41;99339.25;4483902;31;34275;-85
2022/05/13 06:54:11;;;;;;;;;;;;;;;27.43;38.36;99342.31;4469519;32;33304;-85
2022/05/13 06:56:39;;;;;;;;;;;;;;;27.68;38.04;99352.50;4469539;32;34030;-85
2022/05/13 06:59:07;;;;;;;;;;;;;;;28.07;37.48;99356.59;4483786;32;34178;-85
2022/05/13 07:01:39;;;;;;;;;;;;;;;27.86;37.98;99356.00;4483801;32;33887;-85
2022/05/13 07:04:06;;;;;;;;;;;;;;;27.83;36.56;99361.47;4469621;32;33633;-86
2022/05/13 07:06:34;;;;;;;;;;;;;;;27.39;38.11;99362.06;4456647;32;33853;-85
2022/05/13 07:09:01;;;;;;;;;;;;;;;28.17;37.08;99367.59;4483822;32;34513;-85
2022/05/13 07:11:28;;;;;;;;;;;;;;;27.49;37.94;99367.75;4456461;32;33755;-85
2022/05/13 07:13:55;;;;;;;;;;;;;;;28.08;36.65;99366.31;4483540;32;34752;-85
2022/05/13 07:16:23;;;;;;;;;;;;;;;27.79;36.10;99363.47;4469527;32;33431;-86
2022/05/13 07:18:50;;;;;;;;;;;;;;;29.15;35.29;99349.44;4483665;31;35178;-86
2022/05/13 07:21:18;;;;;;;;;;;;;;;28.65;34.60;99357.78;4483572;31;35144;-86
2022/05/13 07:23:45;;;;;;;;;;;;;;;28.75;35.24;99350.94;4483502;32;34825;-86
2022/05/13 07:26:12;;;;;;;;;;;;;;;29.32;33.39;99348.41;4483443;32;34154;-86
2022/05/13 07:28:40;;;;;;;;;;;;;;;28.36;36.20;99358.47;4468593;32;34187;-86
2022/05/13 07:31:07;;;;;;;;;;;;;;;28.61;35.75;99349.09;4483228;32;34066;-86
2022/05/13 07:33:34;;;;;;;;;;;;;;;29.23;35.26;99346.31;4482979;32;34010;-86
2022/05/13 07:36:02;;;;;;;;;;;;;;;29.76;33.84;99342.12;4483466;32;34065;-85
2022/05/13 07:38:31;;;;;;;;;;;;;;;29.52;33.91;99348.03;4483613;32;34249;-86
2022/05/13 07:41:17;;;;;;;;;;;;;;;29.65;33.38;99344.63;4469113;31;35454;-86
2022/05/13 07:43:45;;;;;;;;;;;;;;;29.27;35.02;99353.16;4483588;32;34918;-87
2022/05/13 07:46:12;;;;;;;;;;;;;;;29.03;34.72;99351.03;4483601;31;34272;-86
2022/05/13 07:48:40;;;;;;;;;;;;;;;28.27;35.64;99363.47;4483121;32;34171;-86
2022/05/13 07:51:08;;;;;;;;;;;;;;;29.05;35.82;99362.47;4483368;32;34500;-86
2022/05/13 07:53:36;;;;;;;;;;;;;;;29.47;34.50;99359.94;4483330;32;34251;-85
2022/05/13 07:56:04;;;;;;;;;;;;;;;29.59;32.75;99361.91;4483241;32;33086;-86
2022/05/13 07:58:31;;;;;;;;;;;;;;;28.30;35.25;99372.16;4483459;31;34624;-85
2022/05/13 08:00:59;;;;;;;;;;;;;;;28.07;35.88;99375.25;4483436;32;35155;-86
2022/05/13 08:03:27;;;;;;;;;;;;;;;28.16;36.27;99379.22;4483278;32;33918;-86
2022/05/13 08:05:57;;;;;;;;;;;;;;;27.60;36.30;99376.87;4469150;32;33243;-86
2022/05/13 08:08:29;;;;;;;;;;;;;;;27.56;35.67;99379.81;4483656;32;34028;-86
2022/05/13 08:10:58;;;;;;;;;;;;;;;27.88;35.23;99372.75;4469251;32;35271;-86
2022/05/13 08:13:26;;;;;;;;;;;;;;;27.14;37.00;99386.44;4483139;32;34793;-85
2022/05/13 08:15:53;;;;;;;;;;;;;;;26.50;38.48;99387.00;4483159;32;33602;-87
2022/05/13 08:18:21;;;;;;;;;;;;;;;26.17;40.42;99385.84;4469085;32;34142;-86
2022/05/13 08:20:48;;;;;;;;;;;;;;;26.40;39.75;99383.87;4483471;32;34006;-86
2022/05/13 08:23:15;;;;;;;;;;;;;;;27.15;38.26;99388.16;4483075;32;34362;-86
2022/05/13 08:25:44;;;;;;;;;;;;;;;26.88;38.95;99387.75;4483201;32;34112;-86
2022/05/13 08:28:12;;;;;;;;;;;;;;;26.38;40.04;99393.75;4483123;32;35232;-86
2022/05/13 08:30:39;;;;;;;;;;;;;;;25.86;40.66;99402.38;4468754;32;34142;-86
2022/05/13 08:33:10;;;;;;;;;;;;;;;25.36;41.55;99402.81;4483087;31;34828;-86
2022/05/13 08:35:37;;;;;;;;;;;;;;;25.30;41.33;99412.84;4469376;32;34223;-86
2022/05/13 08:38:06;;;;;;;;;;;;;;;25.52;41.04;99397.69;4482876;32;34351;-85
2022/05/13 08:40:33;;;;;;;;;;;;;;;26.90;37.46;99391.19;4483048;32;34356;-86
2022/05/13 08:43:03;;;;;;;;;;;;;;;26.35;39.36;99396.53;4482819;32;33854;-86
2022/05/13 08:45:31;;;;;;;;;;;;;;;24.78;41.84;99404.44;4455819;32;33040;-86
2022/05/13 08:47:58;;;;;;;;;;;;;;;25.82;41.91;99390.16;4468726;32;33473;-85
2022/05/13 08:50:37;;;;;;;;;;;;;;;25.93;39.89;99392.31;4468972;32;35365;-86
2022/05/13 08:53:17;;;;;;;;;;;;;;;26.62;40.28;99389.03;4468573;32;34729;-85
2022/05/13 08:55:46;;;;;;;;;;;;;;;26.32;39.58;99394.03;4482908;32;33284;-86
2022/05/13 08:58:18;;;;;;;;;;;;;;;25.61;41.03;99386.69;4455636;32;35040;-85
2022/05/13 09:00:47;;;;;;;;;;;;;;;26.77;39.33;99380.28;4455495;32;34021;-86
2022/05/13 09:03:17;;;;;;;;;;;;;;;26.27;40.33;99369.47;4468322;32;34711;-86
2022/05/13 09:05:47;;;;;;;;;;;;;;;25.49;41.84;99379.25;4482708;32;32726;-86
2022/05/13 09:08:14;;;;;;;;;;;;;;;25.87;40.36;99376.66;4468459;32;34898;-86
2022/05/13 09:10:47;;;;;;;;;;;;;;;25.80;41.37;99376.09;4468137;32;34218;-86
2022/05/13 09:13:19;;;;;;;;;;;;;;;26.47;39.59;99365.88;4455277;32;33213;-86
2022/05/13 09:15:55;;;;;;;;;;;;;;;27.40;38.27;99375.28;4468209;32;34089;-87
2022/05/13 09:18:22;;;;;;;;;;;;;;;27.45;36.90;99375.03;4468672;32;34122;-86
2022/05/13 09:20:52;;;;;;;;;;;;;;;26.71;39.20;99380.62;4482683;32;34497;-87
2022/05/13 09:23:19;;;;;;;;;;;;;;;27.85;37.04;99387.09;4468075;32;34072;-86
2022/05/13 09:26:05;;;;;;;;;;;;;;;27.79;37.53;99386.56;4482412;32;34023;-86
2022/05/13 09:28:33;;;;;;;;;;;;;;;27.81;36.17;99379.38;4468008;32;34924;-86
2022/05/13 09:31:20;;;;;;;;;;;;;;;27.94;36.94;99380.41;4468459;32;34089;-86
2022/05/13 09:34:28;;;;;;;;;;;;;;;28.00;36.22;99376.56;4470197;32;34014;-86
2022/05/13 09:37:14;;;;;;;;;;;;;;;28.20;37.77;99386.09;4481890;32;33081;-86
2022/05/13 09:39:44;;;;;;;;;;;;;;;27.65;37.43;99380.19;4482046;32;34907;-86
2022/05/13 09:42:34;;;;;;;;;;;;;;;28.20;36.72;99373.63;4481880;32;34906;-85
2022/05/13 09:45:18;;;;;;;;;;;;;;;28.34;36.19;99373.72;4468228;32;33263;-85
2022/05/13 09:47:46;;;;;;;;;;;;;;;27.96;37.02;99385.63;4481958;32;33503;-86
2022/05/13 09:50:20;;;;;;;;;;;;;;;27.42;38.48;99375.19;4467499;32;34106;-85
2022/05/13 09:52:47;;;;;;;;;;;;;;;27.05;39.38;99389.53;4467398;32;35050;-85
2022/05/13 09:55:26;;;;;;;;;;;;;;;27.32;38.96;99381.97;4468342;32;34406;-86
2022/05/13 09:57:54;;;;;;;;;;;;;;;27.16;39.23;99388.09;4484115;31;33084;-85
2022/05/13 10:00:27;;;;;;;;;;;;;;;27.68;38.86;99394.25;4457217;32;32809;-85
2022/05/13 10:03:14;;;;;;;;;;;;;;;27.75;38.47;99383.22;4457817;31;35240;-86
2022/05/13 10:05:41;;;;;;;;;;;;;;;27.37;39.85;99374.59;4484230;32;33797;-86
2022/05/13 10:08:10;;;;;;;;;;;;;;;28.00;39.25;99374.75;4484320;32;34301;-86
2022/05/13 10:16:24;;;;;;;;;;;;;;;28.50;39.65;99373.72;4484332;31;34010;-86
2022/05/13 10:18:55;;;;;;;;;;;;;;;27.71;39.93;99373.66;4470071;32;34243;-86
2022/05/13 10:21:30;;;;;;;;;;;;;;;27.25;40.01;99368.13;4469624;32;33783;-86
2022/05/13 10:24:16;;;;;;;;;;;;;;;28.40;39.52;99366.31;4484054;32;33858;-86
2022/05/13 10:26:45;;;;;;;;;;;;;;;27.36;40.60;99367.56;4469898;32;32333;-86
2022/05/13 10:29:12;;;;;;;;;;;;;;;27.92;39.36;99361.00;4469993;32;33456;-86
2022/05/13 10:31:41;;;;;;;;;;;;;;;28.16;39.82;99368.56;4483789;32;34217;-86
2022/05/13 10:34:27;;;;;;;;;;;;;;;28.08;39.02;99355.66;4483695;32;34388;-86
2022/05/13 10:37:04;;;;;;;;;;;;;;;28.16;38.20;99364.09;4483915;32;33912;-86
2022/05/13 10:39:43;;;;;;;;;;;;;;;28.80;37.76;99356.88;4470015;32;32957;-86
2022/05/13 10:42:13;;;;;;;;;;;;;;;28.26;39.69;99359.97;4470154;32;34232;-86
2022/05/13 10:44:45;;;;;;;;;;;;;;;29.05;38.21;99348.28;4469915;32;33956;-86
2022/05/13 10:47:17;;;;;;;;;;;;;;;28.36;37.54;99357.59;4483895;31;34947;-86
2022/05/13 10:49:44;;;;;;;;;;;;;;;28.64;38.34;99351.59;4469365;32;34058;-86
2022/05/13 10:52:18;;;;;;;;;;;;;;;28.70;37.00;99339.69;4469872;32;33845;-85
2022/05/13 10:55:04;;;;;;;;;;;;;;;29.71;34.04;99334.41;4483745;32;34568;-85
2022/05/13 10:57:33;;;;;;;;;;;;;;;28.67;36.45;99334.53;4469616;32;33660;-86
2022/05/13 11:00:00;;;;;;;;;;;;;;;29.21;36.76;99334.84;4483765;32;33573;-86
2022/05/13 11:02:30;;;;;;;;;;;;;;;29.93;37.18;99327.69;4480436;32;34077;-84
2022/05/13 11:04:58;;;;;;;;;;;;;;;30.52;34.09;99334.50;4469121;32;34504;-86
2022/05/13 11:07:25;;;;;;;;;;;;;;;29.20;36.14;99341.16;4483468;31;34858;-86
2022/05/13 11:09:52;;;;;;;;;;;;;;;29.10;35.78;99340.88;4483744;32;33687;-85
2022/05/13 11:12:34;;;;;;;;;;;;;;;28.99;35.86;99343.31;4479003;32;35017;-86
2022/05/13 11:15:16;;;;;;;;;;;;;;;29.57;34.92;99339.72;4468045;32;34361;-86
2022/05/13 11:17:47;;;;;;;;;;;;;;;29.50;35.82;99333.91;4453599;32;35123;-85
2022/05/13 11:20:24;;;;;;;;;;;;;;;29.01;37.02;99328.91;4468129;32;33258;-85
2022/05/13 11:23:00;;;;;;;;;;;;;;;28.59;36.83;99335.81;4467967;32;33888;-84
2022/05/13 11:28:24;;;;;;;;;;;;;;;29.25;33.26;99328.41;4478211;32;34201;-85
2022/05/13 11:31:10;;;;;;;;;;;;;;;29.76;33.95;99321.59;4454209;32;33736;-84
2022/05/13 11:33:40;;;;;;;;;;;;;;;29.41;33.47;99329.16;4467477;32;34970;-85
2022/05/13 11:36:12;;;;;;;;;;;;;;;28.70;35.76;99323.66;4467841;32;34427;-84
2022/05/13 11:39:06;;;;;;;;;;;;;;;28.48;35.85;99324.94;4453548;32;34268;-85
2022/05/13 11:41:43;;;;;;;;;;;;;;;28.14;36.85;99324.16;4463521;32;33798;-84
2022/05/13 11:44:51;;;;;;;;;;;;;;;29.51;33.92;99306.25;4471551;32;33902;-84
2022/05/13 11:47:24;;;;;;;;;;;;;;;29.51;33.34;99319.62;4480566;32;34243;-84
2022/05/13 11:49:51;;;;;;;;;;;;;;;29.30;34.99;99323.63;4483250;32;34040;-84
2022/05/13 11:52:26;;;;;;;;;;;;;;;28.60;35.77;99316.22;4483337;32;33394;-86
2022/05/13 11:55:13;;;;;;;;;;;;;;;27.94;37.48;99321.78;4483163;32;34421;-83
2022/05/13 11:57:42;;;;;;;;;;;;;;;28.22;37.38;99320.22;4481080;32;35223;-84
2022/05/13 12:00:12;;;;;;;;;;;;;;;28.02;38.49;99327.53;4481791;32;34206;-85
2022/05/13 12:02:40;;;;;;;;;;;;;;;27.97;37.14;99323.44;4481068;32;33121;-84
2022/05/13 12:05:10;;;;;;;;;;;;;;;28.07;36.70;99316.59;4479127;32;35117;-84
2022/05/13 12:07:39;;;;;;;;;;;;;;;28.53;36.91;99330.03;4465634;32;34039;-87
2022/05/13 12:10:06;;;;;;;;;;;;;;;28.36;36.15;99331.81;4454767;32;33451;-85
2022/05/13 12:12:40;;;;;;;;;;;;;;;28.33;35.84;99337.31;4453417;32;32425;-84
2022/05/13 12:15:22;;;;;;;;;;;;;;;28.43;35.66;99321.69;4467369;32;34351;-85
2022/05/13 12:18:12;;;;;;;;;;;;;;;27.83;36.77;99329.50;4466654;32;34494;-91
2022/05/13 12:20:45;;;;;;;;;;;;;;;26.90;37.89;99317.56;4466789;32;33877;-85
2022/05/13 12:23:29;;;;;;;;;;;;;;;27.06;38.05;99325.59;4463285;32;33518;-85
2022/05/13 12:26:01;;;;;;;;;;;;;;;27.97;36.61;99323.44;4463845;32;35094;-85
2022/05/13 12:28:47;;;;;;;;;;;;;;;27.00;38.85;99323.25;4453391;32;33977;-86
2022/05/13 12:31:19;;;;;;;;;;;;;;;27.00;38.13;99325.06;4467157;32;34104;-88
2022/05/13 12:37:33;;;;;;;;;;;;;;;26.28;39.89;99320.69;4452811;32;32820;-84
2022/05/13 12:40:03;;;;;;;;;;;;;;;27.38;38.40;99317.72;4461368;32;34251;-88
2022/05/13 12:42:42;;;;;;;;;;;;;;;28.08;36.42;99311.22;4424628;32;34085;-88
2022/05/13 12:45:21;;;;;;;;;;;;;;;26.69;38.02;99308.88;4467218;32;33108;-84
2022/05/13 12:47:56;;;;;;;;;;;;;;;27.96;36.42;99316.34;4470996;32;34887;-86
2022/05/13 12:50:37;;;;;;;;;;;;;;;27.44;36.23;99306.75;4440759;32;34481;-86
2022/05/13 12:53:27;;;;;;;;;;;;;;;28.62;33.50;99292.97;4450415;32;34075;-87
2022/05/13 12:56:22;;;;;;;;;;;;;;;27.38;35.29;99310.59;4444356;32;33186;-88
2022/05/13 12:58:58;;;;;;;;;;;;;;;28.40;32.27;99297.84;4442743;32;33761;-87
2022/05/13 13:01:26;;;;;;;;;;;;;;;27.50;34.24;99306.41;4435372;32;33935;-87
2022/05/13 13:03:54;;;;;;;;;;;;;;;28.27;33.10;99303.00;4434764;32;34001;-86
2022/05/13 13:06:21;;;;;;;;;;;;;;;27.26;34.08;99311.25;4434573;32;32974;-87
2022/05/13 13:08:51;;;;;;;;;;;;;;;27.87;32.95;99293.75;4434654;32;34063;-87
2022/05/13 13:11:24;;;;;;;;;;;;;;;28.18;34.00;99308.00;4436132;32;34542;-87
2022/05/13 13:13:51;;;;;;;;;;;;;;;26.88;35.33;99298.16;4442111;32;33625;-85
2022/05/13 13:16:26;;;;;;;;;;;;;;;27.29;35.49;99295.13;4442507;32;32822;-86
2022/05/13 13:19:10;;;;;;;;;;;;;;;26.17;36.03;99292.84;4437437;32;33542;-84
2022/05/13 13:21:39;;;;;;;;;;;;;;;27.06;35.02;99299.00;4441013;32;34503;-85
2022/05/13 13:24:14;;;;;;;;;;;;;;;27.41;34.32;99294.47;4427563;32;33723;-87
2022/05/13 13:26:42;;;;;;;;;;;;;;;27.01;35.89;99297.50;4421862;32;31826;-84
2022/05/13 13:29:11;;;;;;;;;;;;;;;28.12;33.42;99294.09;4445473;32;35555;-85
2022/05/13 13:31:41;;;;;;;;;;;;;;;27.14;36.09;99294.16;4442525;32;34490;-83